sensor_id;sensor_type;location;lat;lon;timestamp;P1;durP1;ratioP1;P2;durP2;ratioP2
16963;SDS011;8598;50.508;10.436;2023-09-19T00:00:19;3.33;;;2.50;;
16963;SDS011;8598;50.508;10.436;2023-09-19T00:02:52;4.57;;;2.67;;
16963;SDS011;8598;50.508;10.436;2023-09-19T00:05:19;2.83;;;2.63;;
16963;SDS011;8598;50.508;10.436;2023-09-19T00:07:49;4.13;;;2.30;;
16963;SDS011;8598;50.508;10.436;2023-09-19T00:10:18;5.03;;;2.40;;
16963;SDS011;8598;50.508;10.436;2023-09-19T00:12:46;4.20;;;2.87;;
16963;SDS011;8598;50.508;10.436;2023-09-19T00:15:13;5.43;;;2.43;;
16963;SDS011;8598;50.508;10.436;2023-09-19T00:17:42;5.47;;;2.27;;
16963;SDS011;8598;50.508;10.436;2023-09-19T00:20:11;2.83;;;2.63;;
16963;SDS011;8598;50.508;10.436;2023-09-19T00:22:39;4.77;;;2.70;;
16963;SDS011;8598;50.508;10.436;2023-09-19T00:25:07;5.13;;;2.80;;
16963;SDS011;8598;50.508;10.436;2023-09-19T00:27:34;2.73;;;2.53;;
16963;SDS011;8598;50.508;10.436;2023-09-19T00:30:04;3.00;;;2.07;;
16963;SDS011;8598;50.508;10.436;2023-09-19T00:32:33;2.83;;;2.63;;
16963;SDS011;8598;50.508;10.436;2023-09-19T00:35:02;5.67;;;3.00;;
16963;SDS011;8598;50.508;10.436;2023-09-19T00:37:31;2.30;;;2.10;;
16963;SDS011;8598;50.508;10.436;2023-09-19T00:39:58;3.13;;;2.37;;
16963;SDS011;8598;50.508;10.436;2023-09-19T00:42:24;6.17;;;2.80;;
16963;SDS011;8598;50.508;10.436;2023-09-19T00:44:51;4.03;;;2.43;;
16963;SDS011;8598;50.508;10.436;2023-09-19T00:47:18;5.53;;;2.30;;
16963;SDS011;8598;50.508;10.436;2023-09-19T00:49:45;2.60;;;2.40;;
16963;SDS011;8598;50.508;10.436;2023-09-19T00:52:15;7.83;;;2.70;;
16963;SDS011;8598;50.508;10.436;2023-09-19T00:54:45;7.20;;;2.97;;
16963;SDS011;8598;50.508;10.436;2023-09-19T00:57:13;4.53;;;2.43;;
16963;SDS011;8598;50.508;10.436;2023-09-19T00:59:40;3.67;;;2.33;;
16963;SDS011;8598;50.508;10.436;2023-09-19T01:02:07;5.23;;;2.57;;
16963;SDS011;8598;50.508;10.436;2023-09-19T01:04:34;4.60;;;3.43;;
16963;SDS011;8598;50.508;10.436;2023-09-19T01:07:01;3.93;;;2.87;;
16963;SDS011;8598;50.508;10.436;2023-09-19T01:09:28;2.97;;;2.20;;
16963;SDS011;8598;50.508;10.436;2023-09-19T01:11:57;4.33;;;3.10;;
16963;SDS011;8598;50.508;10.436;2023-09-19T01:14:29;2.53;;;2.13;;
16963;SDS011;8598;50.508;10.436;2023-09-19T01:17:00;3.07;;;2.77;;
16963;SDS011;8598;50.508;10.436;2023-09-19T01:22:32;3.17;;;2.87;;
16963;SDS011;8598;50.508;10.436;2023-09-19T01:25:20;3.23;;;2.77;;
16963;SDS011;8598;50.508;10.436;2023-09-19T01:28:18;4.70;;;3.20;;
16963;SDS011;8598;50.508;10.436;2023-09-19T01:30:56;3.27;;;2.97;;
16963;SDS011;8598;50.508;10.436;2023-09-19T01:33:25;3.43;;;2.53;;
16963;SDS011;8598;50.508;10.436;2023-09-19T01:35:51;3.53;;;2.90;;
16963;SDS011;8598;50.508;10.436;2023-09-19T01:38:22;3.77;;;2.40;;
16963;SDS011;8598;50.508;10.436;2023-09-19T01:40:55;4.40;;;2.87;;
16963;SDS011;8598;50.508;10.436;2023-09-19T01:43:30;3.13;;;2.93;;
16963;SDS011;8598;50.508;10.436;2023-09-19T01:46:04;2.73;;;2.50;;
16963;SDS011;8598;50.508;10.436;2023-09-19T01:48:35;2.40;;;2.07;;
16963;SDS011;8598;50.508;10.436;2023-09-19T01:51:11;3.10;;;2.80;;
16963;SDS011;8598;50.508;10.436;2023-09-19T01:53:44;2.47;;;2.27;;
16963;SDS011;8598;50.508;10.436;2023-09-19T01:56:21;3.10;;;2.23;;
16963;SDS011;8598;50.508;10.436;2023-09-19T01:58:56;3.67;;;2.77;;
16963;SDS011;8598;50.508;10.436;2023-09-19T02:01:27;5.97;;;2.60;;
16963;SDS011;8598;50.508;10.436;2023-09-19T02:03:54;3.20;;;2.90;;
16963;SDS011;8598;50.508;10.436;2023-09-19T02:06:21;4.53;;;2.70;;
16963;SDS011;8598;50.508;10.436;2023-09-19T02:08:50;4.63;;;2.47;;
16963;SDS011;8598;50.508;10.436;2023-09-19T02:11:17;2.43;;;2.23;;
16963;SDS011;8598;50.508;10.436;2023-09-19T02:13:43;3.13;;;2.10;;
16963;SDS011;8598;50.508;10.436;2023-09-19T02:16:10;2.40;;;2.20;;
16963;SDS011;8598;50.508;10.436;2023-09-19T02:18:39;2.90;;;2.30;;
16963;SDS011;8598;50.508;10.436;2023-09-19T02:21:05;2.93;;;1.83;;
16963;SDS011;8598;50.508;10.436;2023-09-19T02:23:33;4.07;;;2.57;;
16963;SDS011;8598;50.508;10.436;2023-09-19T02:26:00;3.57;;;2.47;;
16963;SDS011;8598;50.508;10.436;2023-09-19T02:28:26;5.00;;;2.33;;
16963;SDS011;8598;50.508;10.436;2023-09-19T02:30:55;2.80;;;2.60;;
16963;SDS011;8598;50.508;10.436;2023-09-19T02:33:22;4.93;;;2.77;;
16963;SDS011;8598;50.508;10.436;2023-09-19T02:35:50;4.80;;;2.80;;
16963;SDS011;8598;50.508;10.436;2023-09-19T02:38:22;5.00;;;1.83;;
16963;SDS011;8598;50.508;10.436;2023-09-19T02:40:49;3.07;;;2.60;;
16963;SDS011;8598;50.508;10.436;2023-09-19T02:43:16;2.40;;;2.20;;
16963;SDS011;8598;50.508;10.436;2023-09-19T02:45:44;4.87;;;2.30;;
16963;SDS011;8598;50.508;10.436;2023-09-19T02:48:11;2.20;;;2.00;;
16963;SDS011;8598;50.508;10.436;2023-09-19T02:50:38;4.03;;;2.17;;
16963;SDS011;8598;50.508;10.436;2023-09-19T02:53:06;3.37;;;2.97;;
16963;SDS011;8598;50.508;10.436;2023-09-19T02:55:35;2.53;;;1.67;;
16963;SDS011;8598;50.508;10.436;2023-09-19T02:58:03;4.13;;;2.10;;
16963;SDS011;8598;50.508;10.436;2023-09-19T03:00:32;2.40;;;2.20;;
16963;SDS011;8598;50.508;10.436;2023-09-19T03:03:00;2.03;;;1.90;;
16963;SDS011;8598;50.508;10.436;2023-09-19T03:05:28;3.83;;;1.83;;
16963;SDS011;8598;50.508;10.436;2023-09-19T03:07:56;2.47;;;2.13;;
16963;SDS011;8598;50.508;10.436;2023-09-19T03:10:27;2.60;;;1.80;;
16963;SDS011;8598;50.508;10.436;2023-09-19T03:12:55;2.13;;;1.80;;
16963;SDS011;8598;50.508;10.436;2023-09-19T03:15:21;3.27;;;2.20;;
16963;SDS011;8598;50.508;10.436;2023-09-19T03:17:48;4.43;;;1.83;;
16963;SDS011;8598;50.508;10.436;2023-09-19T03:20:17;4.83;;;2.33;;
16963;SDS011;8598;50.508;10.436;2023-09-19T03:22:44;2.77;;;2.20;;
16963;SDS011;8598;50.508;10.436;2023-09-19T03:25:11;5.30;;;2.00;;
16963;SDS011;8598;50.508;10.436;2023-09-19T03:27:40;2.83;;;2.20;;
16963;SDS011;8598;50.508;10.436;2023-09-19T03:30:07;2.27;;;1.93;;
16963;SDS011;8598;50.508;10.436;2023-09-19T03:32:34;2.10;;;1.90;;
16963;SDS011;8598;50.508;10.436;2023-09-19T03:35:01;2.60;;;2.13;;
16963;SDS011;8598;50.508;10.436;2023-09-19T03:37:30;1.60;;;1.40;;
16963;SDS011;8598;50.508;10.436;2023-09-19T03:39:57;3.30;;;1.60;;
16963;SDS011;8598;50.508;10.436;2023-09-19T03:42:23;2.60;;;2.20;;
16963;SDS011;8598;50.508;10.436;2023-09-19T03:44:53;4.87;;;1.87;;
16963;SDS011;8598;50.508;10.436;2023-09-19T03:47:20;2.33;;;1.80;;
16963;SDS011;8598;50.508;10.436;2023-09-19T03:49:47;2.90;;;1.83;;
16963;SDS011;8598;50.508;10.436;2023-09-19T03:52:14;3.40;;;2.40;;
16963;SDS011;8598;50.508;10.436;2023-09-19T03:54:41;4.37;;;1.73;;
16963;SDS011;8598;50.508;10.436;2023-09-19T03:57:08;1.90;;;1.80;;
16963;SDS011;8598;50.508;10.436;2023-09-19T03:59:35;2.47;;;2.07;;
16963;SDS011;8598;50.508;10.436;2023-09-19T04:02:03;2.80;;;2.10;;
16963;SDS011;8598;50.508;10.436;2023-09-19T04:04:36;2.27;;;1.90;;
16963;SDS011;8598;50.508;10.436;2023-09-19T04:07:03;2.30;;;1.90;;
16963;SDS011;8598;50.508;10.436;2023-09-19T04:09:30;3.10;;;1.87;;
16963;SDS011;8598;50.508;10.436;2023-09-19T04:11:56;3.07;;;2.30;;
16963;SDS011;8598;50.508;10.436;2023-09-19T04:14:23;1.93;;;1.73;;
16963;SDS011;8598;50.508;10.436;2023-09-19T04:16:50;3.10;;;2.17;;
16963;SDS011;8598;50.508;10.436;2023-09-19T04:19:18;4.63;;;2.50;;
16963;SDS011;8598;50.508;10.436;2023-09-19T04:21:46;4.67;;;2.23;;
16963;SDS011;8598;50.508;10.436;2023-09-19T04:24:12;2.60;;;2.10;;
16963;SDS011;8598;50.508;10.436;2023-09-19T04:26:39;2.60;;;2.40;;
16963;SDS011;8598;50.508;10.436;2023-09-19T04:29:07;2.47;;;1.70;;
16963;SDS011;8598;50.508;10.436;2023-09-19T04:31:36;3.17;;;1.97;;
16963;SDS011;8598;50.508;10.436;2023-09-19T04:34:05;2.43;;;1.97;;
16963;SDS011;8598;50.508;10.436;2023-09-19T04:36:37;3.90;;;2.17;;
16963;SDS011;8598;50.508;10.436;2023-09-19T04:39:03;5.10;;;2.10;;
16963;SDS011;8598;50.508;10.436;2023-09-19T04:41:32;3.40;;;1.93;;
16963;SDS011;8598;50.508;10.436;2023-09-19T04:43:59;2.03;;;1.93;;
16963;SDS011;8598;50.508;10.436;2023-09-19T04:46:25;3.07;;;2.63;;
16963;SDS011;8598;50.508;10.436;2023-09-19T04:48:52;2.67;;;2.27;;
16963;SDS011;8598;50.508;10.436;2023-09-19T04:51:19;3.07;;;2.50;;
16963;SDS011;8598;50.508;10.436;2023-09-19T04:53:47;2.90;;;2.37;;
16963;SDS011;8598;50.508;10.436;2023-09-19T04:56:14;3.00;;;1.93;;
16963;SDS011;8598;50.508;10.436;2023-09-19T04:58:41;2.97;;;2.23;;
16963;SDS011;8598;50.508;10.436;2023-09-19T05:01:07;5.60;;;2.97;;
16963;SDS011;8598;50.508;10.436;2023-09-19T05:03:36;9.07;;;2.40;;
16963;SDS011;8598;50.508;10.436;2023-09-19T05:06:03;4.63;;;2.23;;
16963;SDS011;8598;50.508;10.436;2023-09-19T05:08:30;4.93;;;2.50;;
16963;SDS011;8598;50.508;10.436;2023-09-19T05:10:58;3.27;;;2.97;;
16963;SDS011;8598;50.508;10.436;2023-09-19T05:13:28;3.00;;;2.70;;
16963;SDS011;8598;50.508;10.436;2023-09-19T05:15:55;5.27;;;3.17;;
16963;SDS011;8598;50.508;10.436;2023-09-19T05:18:26;3.30;;;3.00;;
16963;SDS011;8598;50.508;10.436;2023-09-19T05:20:53;3.53;;;2.97;;
16963;SDS011;8598;50.508;10.436;2023-09-19T05:23:21;4.30;;;3.00;;
16963;SDS011;8598;50.508;10.436;2023-09-19T05:25:47;2.97;;;2.77;;
16963;SDS011;8598;50.508;10.436;2023-09-19T05:28:15;4.33;;;3.00;;
16963;SDS011;8598;50.508;10.436;2023-09-19T05:30:42;2.80;;;2.37;;
16963;SDS011;8598;50.508;10.436;2023-09-19T05:33:09;6.43;;;2.80;;
16963;SDS011;8598;50.508;10.436;2023-09-19T05:35:36;4.00;;;2.50;;
16963;SDS011;8598;50.508;10.436;2023-09-19T05:38:04;2.67;;;2.40;;
16963;SDS011;8598;50.508;10.436;2023-09-19T05:40:34;3.23;;;3.03;;
16963;SDS011;8598;50.508;10.436;2023-09-19T05:43:01;2.80;;;2.57;;
16963;SDS011;8598;50.508;10.436;2023-09-19T05:45:30;2.87;;;2.67;;
16963;SDS011;8598;50.508;10.436;2023-09-19T05:48:05;3.97;;;2.50;;
16963;SDS011;8598;50.508;10.436;2023-09-19T05:50:33;2.03;;;1.67;;
16963;SDS011;8598;50.508;10.436;2023-09-19T05:53:01;2.83;;;2.20;;
16963;SDS011;8598;50.508;10.436;2023-09-19T05:55:29;3.07;;;2.43;;
16963;SDS011;8598;50.508;10.436;2023-09-19T05:57:55;2.40;;;2.20;;
16963;SDS011;8598;50.508;10.436;2023-09-19T06:00:22;3.97;;;1.97;;
16963;SDS011;8598;50.508;10.436;2023-09-19T06:02:52;2.10;;;1.63;;
16963;SDS011;8598;50.508;10.436;2023-09-19T06:05:20;2.97;;;2.57;;
16963;SDS011;8598;50.508;10.436;2023-09-19T06:07:47;3.80;;;2.17;;
16963;SDS011;8598;50.508;10.436;2023-09-19T06:10:13;5.17;;;2.40;;
16963;SDS011;8598;50.508;10.436;2023-09-19T06:12:40;2.50;;;1.83;;
16963;SDS011;8598;50.508;10.436;2023-09-19T06:15:09;4.50;;;2.03;;
16963;SDS011;8598;50.508;10.436;2023-09-19T06:17:40;2.17;;;1.67;;
16963;SDS011;8598;50.508;10.436;2023-09-19T06:20:08;2.40;;;2.20;;
16963;SDS011;8598;50.508;10.436;2023-09-19T06:22:40;2.50;;;1.97;;
16963;SDS011;8598;50.508;10.436;2023-09-19T06:25:07;2.30;;;1.90;;
16963;SDS011;8598;50.508;10.436;2023-09-19T06:27:36;2.47;;;2.17;;
16963;SDS011;8598;50.508;10.436;2023-09-19T06:30:04;2.57;;;2.23;;
16963;SDS011;8598;50.508;10.436;2023-09-19T06:32:33;3.47;;;2.90;;
16963;SDS011;8598;50.508;10.436;2023-09-19T06:35:00;4.50;;;2.10;;
16963;SDS011;8598;50.508;10.436;2023-09-19T06:37:29;2.10;;;1.87;;
16963;SDS011;8598;50.508;10.436;2023-09-19T06:39:56;3.67;;;2.17;;
16963;SDS011;8598;50.508;10.436;2023-09-19T06:42:23;4.17;;;1.67;;
16963;SDS011;8598;50.508;10.436;2023-09-19T06:44:50;2.33;;;1.67;;
16963;SDS011;8598;50.508;10.436;2023-09-19T06:47:16;2.30;;;1.93;;
16963;SDS011;8598;50.508;10.436;2023-09-19T06:49:43;1.67;;;1.53;;
16963;SDS011;8598;50.508;10.436;2023-09-19T06:52:10;3.57;;;1.47;;
16963;SDS011;8598;50.508;10.436;2023-09-19T06:54:38;4.37;;;1.70;;
16963;SDS011;8598;50.508;10.436;2023-09-19T06:57:05;5.07;;;1.30;;
16963;SDS011;8598;50.508;10.436;2023-09-19T06:59:34;1.50;;;1.30;;
16963;SDS011;8598;50.508;10.436;2023-09-19T07:02:02;1.73;;;1.40;;
16963;SDS011;8598;50.508;10.436;2023-09-19T07:04:31;1.90;;;1.10;;
16963;SDS011;8598;50.508;10.436;2023-09-19T07:06:57;2.47;;;1.70;;
16963;SDS011;8598;50.508;10.436;2023-09-19T07:09:24;2.80;;;1.43;;
16963;SDS011;8598;50.508;10.436;2023-09-19T07:11:53;2.57;;;1.57;;
16963;SDS011;8598;50.508;10.436;2023-09-19T07:14:21;3.00;;;1.70;;
16963;SDS011;8598;50.508;10.436;2023-09-19T07:16:47;2.30;;;1.33;;
16963;SDS011;8598;50.508;10.436;2023-09-19T07:19:14;2.60;;;1.73;;
16963;SDS011;8598;50.508;10.436;2023-09-19T07:21:41;2.77;;;1.20;;
16963;SDS011;8598;50.508;10.436;2023-09-19T07:24:08;1.20;;;1.10;;
16963;SDS011;8598;50.508;10.436;2023-09-19T07:26:35;3.70;;;1.70;;
16963;SDS011;8598;50.508;10.436;2023-09-19T07:29:03;1.50;;;1.17;;
16963;SDS011;8598;50.508;10.436;2023-09-19T07:31:31;1.20;;;1.10;;
16963;SDS011;8598;50.508;10.436;2023-09-19T07:33:58;1.23;;;1.10;;
16963;SDS011;8598;50.508;10.436;2023-09-19T07:36:25;1.50;;;0.90;;
16963;SDS011;8598;50.508;10.436;2023-09-19T07:38:54;2.53;;;1.20;;
16963;SDS011;8598;50.508;10.436;2023-09-19T07:41:22;2.40;;;1.17;;
16963;SDS011;8598;50.508;10.436;2023-09-19T07:43:50;1.83;;;1.00;;
16963;SDS011;8598;50.508;10.436;2023-09-19T07:46:18;4.13;;;0.87;;
16963;SDS011;8598;50.508;10.436;2023-09-19T07:48:46;1.90;;;1.13;;
16963;SDS011;8598;50.508;10.436;2023-09-19T07:51:14;2.13;;;1.00;;
16963;SDS011;8598;50.508;10.436;2023-09-19T07:53:41;3.50;;;1.10;;
16963;SDS011;8598;50.508;10.436;2023-09-19T07:56:08;0.90;;;0.83;;
16963;SDS011;8598;50.508;10.436;2023-09-19T07:58:36;2.30;;;1.00;;
16963;SDS011;8598;50.508;10.436;2023-09-19T08:01:06;3.23;;;1.07;;
16963;SDS011;8598;50.508;10.436;2023-09-19T08:03:36;2.13;;;1.30;;
16963;SDS011;8598;50.508;10.436;2023-09-19T08:06:05;2.63;;;1.00;;
16963;SDS011;8598;50.508;10.436;2023-09-19T08:08:33;2.43;;;1.10;;
16963;SDS011;8598;50.508;10.436;2023-09-19T08:11:02;4.13;;;1.10;;
16963;SDS011;8598;50.508;10.436;2023-09-19T08:13:35;2.53;;;1.30;;
16963;SDS011;8598;50.508;10.436;2023-09-19T08:16:03;1.63;;;1.00;;
16963;SDS011;8598;50.508;10.436;2023-09-19T08:18:30;1.83;;;0.90;;
16963;SDS011;8598;50.508;10.436;2023-09-19T08:20:58;5.27;;;1.10;;
16963;SDS011;8598;50.508;10.436;2023-09-19T08:23:25;1.57;;;0.90;;
16963;SDS011;8598;50.508;10.436;2023-09-19T08:25:55;0.97;;;0.90;;
16963;SDS011;8598;50.508;10.436;2023-09-19T08:28:23;1.73;;;1.57;;
16963;SDS011;8598;50.508;10.436;2023-09-19T08:30:49;1.63;;;1.10;;
16963;SDS011;8598;50.508;10.436;2023-09-19T08:33:17;3.00;;;1.10;;
16963;SDS011;8598;50.508;10.436;2023-09-19T08:35:44;4.97;;;2.17;;
16963;SDS011;8598;50.508;10.436;2023-09-19T08:38:12;0.90;;;0.80;;
16963;SDS011;8598;50.508;10.436;2023-09-19T08:40:39;2.83;;;1.17;;
16963;SDS011;8598;50.508;10.436;2023-09-19T08:43:07;2.33;;;1.20;;
16963;SDS011;8598;50.508;10.436;2023-09-19T08:45:34;1.20;;;0.90;;
16963;SDS011;8598;50.508;10.436;2023-09-19T08:48:04;1.53;;;0.70;;
16963;SDS011;8598;50.508;10.436;2023-09-19T08:50:43;1.60;;;0.90;;
16963;SDS011;8598;50.508;10.436;2023-09-19T08:53:15;2.50;;;0.77;;
16963;SDS011;8598;50.508;10.436;2023-09-19T08:55:48;5.27;;;1.10;;
16963;SDS011;8598;50.508;10.436;2023-09-19T08:58:19;6.23;;;1.30;;
16963;SDS011;8598;50.508;10.436;2023-09-19T09:00:49;1.73;;;1.00;;
16963;SDS011;8598;50.508;10.436;2023-09-19T09:03:17;2.50;;;1.00;;
16963;SDS011;8598;50.508;10.436;2023-09-19T09:05:46;3.93;;;1.10;;
16963;SDS011;8598;50.508;10.436;2023-09-19T09:08:16;1.70;;;1.00;;
16963;SDS011;8598;50.508;10.436;2023-09-19T09:10:45;1.40;;;1.00;;
16963;SDS011;8598;50.508;10.436;2023-09-19T09:13:11;3.40;;;0.90;;
16963;SDS011;8598;50.508;10.436;2023-09-19T09:15:40;3.20;;;1.07;;
16963;SDS011;8598;50.508;10.436;2023-09-19T09:18:09;2.57;;;1.30;;
16963;SDS011;8598;50.508;10.436;2023-09-19T09:20:36;3.13;;;1.10;;
16963;SDS011;8598;50.508;10.436;2023-09-19T09:23:03;3.43;;;1.00;;
16963;SDS011;8598;50.508;10.436;2023-09-19T09:28:18;3.17;;;1.10;;
16963;SDS011;8598;50.508;10.436;2023-09-19T09:30:46;4.47;;;1.30;;
16963;SDS011;8598;50.508;10.436;2023-09-19T09:33:13;4.33;;;1.53;;
16963;SDS011;8598;50.508;10.436;2023-09-19T09:35:47;1.63;;;1.20;;
16963;SDS011;8598;50.508;10.436;2023-09-19T09:38:17;2.23;;;1.40;;
16963;SDS011;8598;50.508;10.436;2023-09-19T09:40:49;3.77;;;1.10;;
16963;SDS011;8598;50.508;10.436;2023-09-19T09:43:27;3.03;;;1.37;;
16963;SDS011;8598;50.508;10.436;2023-09-19T09:49:06;6.13;;;2.30;;
16963;SDS011;8598;50.508;10.436;2023-09-19T09:51:44;2.83;;;1.10;;
16963;SDS011;8598;50.508;10.436;2023-09-19T09:54:13;2.43;;;1.40;;
16963;SDS011;8598;50.508;10.436;2023-09-19T09:59:44;2.90;;;1.13;;
16963;SDS011;8598;50.508;10.436;2023-09-19T10:02:12;2.63;;;1.33;;
16963;SDS011;8598;50.508;10.436;2023-09-19T10:04:41;3.00;;;1.43;;
16963;SDS011;8598;50.508;10.436;2023-09-19T10:07:23;4.57;;;1.70;;
16963;SDS011;8598;50.508;10.436;2023-09-19T10:09:52;2.23;;;1.17;;
16963;SDS011;8598;50.508;10.436;2023-09-19T10:12:25;3.27;;;1.90;;
16963;SDS011;8598;50.508;10.436;2023-09-19T10:14:54;3.83;;;1.53;;
16963;SDS011;8598;50.508;10.436;2023-09-19T10:17:24;2.77;;;1.37;;
16963;SDS011;8598;50.508;10.436;2023-09-19T10:19:54;4.53;;;2.40;;
16963;SDS011;8598;50.508;10.436;2023-09-19T10:22:23;2.60;;;1.40;;
16963;SDS011;8598;50.508;10.436;2023-09-19T10:24:52;3.17;;;1.40;;
16963;SDS011;8598;50.508;10.436;2023-09-19T10:27:21;3.33;;;1.43;;
16963;SDS011;8598;50.508;10.436;2023-09-19T10:29:52;7.07;;;1.80;;
16963;SDS011;8598;50.508;10.436;2023-09-19T10:32:22;7.13;;;1.20;;
16963;SDS011;8598;50.508;10.436;2023-09-19T10:34:49;2.53;;;1.60;;
16963;SDS011;8598;50.508;10.436;2023-09-19T10:37:19;5.17;;;1.40;;
16963;SDS011;8598;50.508;10.436;2023-09-19T10:39:47;2.20;;;1.67;;
16963;SDS011;8598;50.508;10.436;2023-09-19T10:42:18;2.87;;;1.33;;
16963;SDS011;8598;50.508;10.436;2023-09-19T10:44:46;5.13;;;1.50;;
16963;SDS011;8598;50.508;10.436;2023-09-19T10:47:16;4.57;;;1.63;;
16963;SDS011;8598;50.508;10.436;2023-09-19T10:49:44;4.27;;;1.90;;
16963;SDS011;8598;50.508;10.436;2023-09-19T10:52:12;3.17;;;1.47;;
16963;SDS011;8598;50.508;10.436;2023-09-19T10:54:45;3.67;;;1.77;;
16963;SDS011;8598;50.508;10.436;2023-09-19T10:57:18;8.33;;;4.80;;
16963;SDS011;8598;50.508;10.436;2023-09-19T11:00:00;5.67;;;1.87;;
16963;SDS011;8598;50.508;10.436;2023-09-19T11:02:30;3.30;;;1.60;;
16963;SDS011;8598;50.508;10.436;2023-09-19T11:05:01;5.57;;;2.00;;
16963;SDS011;8598;50.508;10.436;2023-09-19T11:13:23;4.00;;;1.87;;
16963;SDS011;8598;50.508;10.436;2023-09-19T11:18:55;3.97;;;1.60;;
16963;SDS011;8598;50.508;10.436;2023-09-19T11:24:28;3.17;;;1.33;;
16963;SDS011;8598;50.508;10.436;2023-09-19T11:27:13;4.77;;;1.87;;
16963;SDS011;8598;50.508;10.436;2023-09-19T11:29:42;4.00;;;2.00;;
16963;SDS011;8598;50.508;10.436;2023-09-19T11:32:08;3.57;;;1.40;;
16963;SDS011;8598;50.508;10.436;2023-09-19T11:40:44;4.20;;;1.67;;
16963;SDS011;8598;50.508;10.436;2023-09-19T11:43:29;4.10;;;1.63;;
16963;SDS011;8598;50.508;10.436;2023-09-19T11:46:04;2.67;;;1.43;;
16963;SDS011;8598;50.508;10.436;2023-09-19T11:48:34;4.70;;;1.53;;
16963;SDS011;8598;50.508;10.436;2023-09-19T11:51:14;3.03;;;1.57;;
16963;SDS011;8598;50.508;10.436;2023-09-19T11:53:47;4.13;;;1.60;;
16963;SDS011;8598;50.508;10.436;2023-09-19T11:56:15;4.13;;;1.90;;
16963;SDS011;8598;50.508;10.436;2023-09-19T11:58:44;2.77;;;1.90;;
16963;SDS011;8598;50.508;10.436;2023-09-19T12:01:12;3.20;;;1.50;;
16963;SDS011;8598;50.508;10.436;2023-09-19T12:03:46;3.47;;;1.83;;
16963;SDS011;8598;50.508;10.436;2023-09-19T12:06:19;5.37;;;1.63;;
16963;SDS011;8598;50.508;10.436;2023-09-19T12:08:46;3.23;;;1.67;;
16963;SDS011;8598;50.508;10.436;2023-09-19T12:11:15;3.27;;;1.87;;
16963;SDS011;8598;50.508;10.436;2023-09-19T12:13:43;3.50;;;1.53;;
16963;SDS011;8598;50.508;10.436;2023-09-19T12:16:12;3.33;;;1.50;;
16963;SDS011;8598;50.508;10.436;2023-09-19T12:18:41;2.80;;;1.57;;
16963;SDS011;8598;50.508;10.436;2023-09-19T12:21:22;3.73;;;1.80;;
16963;SDS011;8598;50.508;10.436;2023-09-19T12:23:58;6.23;;;1.70;;
16963;SDS011;8598;50.508;10.436;2023-09-19T12:26:26;2.93;;;1.67;;
16963;SDS011;8598;50.508;10.436;2023-09-19T12:28:54;4.13;;;1.80;;
16963;SDS011;8598;50.508;10.436;2023-09-19T12:31:21;4.30;;;2.10;;
16963;SDS011;8598;50.508;10.436;2023-09-19T12:33:52;7.50;;;2.10;;
16963;SDS011;8598;50.508;10.436;2023-09-19T12:36:21;6.30;;;2.30;;
16963;SDS011;8598;50.508;10.436;2023-09-19T12:38:54;3.33;;;1.93;;
16963;SDS011;8598;50.508;10.436;2023-09-19T12:41:21;4.70;;;2.37;;
16963;SDS011;8598;50.508;10.436;2023-09-19T12:43:48;3.87;;;1.80;;
16963;SDS011;8598;50.508;10.436;2023-09-19T12:46:19;4.47;;;1.70;;
16963;SDS011;8598;50.508;10.436;2023-09-19T12:48:50;3.10;;;1.90;;
16963;SDS011;8598;50.508;10.436;2023-09-19T12:51:44;2.57;;;1.77;;
16963;SDS011;8598;50.508;10.436;2023-09-19T12:54:12;4.73;;;1.60;;
16963;SDS011;8598;50.508;10.436;2023-09-19T12:56:41;5.93;;;2.20;;
16963;SDS011;8598;50.508;10.436;2023-09-19T12:59:09;3.43;;;1.80;;
16963;SDS011;8598;50.508;10.436;2023-09-19T13:01:38;2.53;;;1.60;;
16963;SDS011;8598;50.508;10.436;2023-09-19T13:04:10;4.77;;;1.60;;
16963;SDS011;8598;50.508;10.436;2023-09-19T13:06:40;2.67;;;1.67;;
16963;SDS011;8598;50.508;10.436;2023-09-19T13:09:10;4.67;;;1.60;;
16963;SDS011;8598;50.508;10.436;2023-09-19T13:11:39;1.77;;;1.40;;
16963;SDS011;8598;50.508;10.436;2023-09-19T13:14:15;3.87;;;2.00;;
16963;SDS011;8598;50.508;10.436;2023-09-19T13:16:57;4.30;;;1.50;;
16963;SDS011;8598;50.508;10.436;2023-09-19T13:19:39;4.60;;;1.93;;
16963;SDS011;8598;50.508;10.436;2023-09-19T13:25:09;4.67;;;1.60;;
16963;SDS011;8598;50.508;10.436;2023-09-19T13:27:39;3.40;;;1.73;;
16963;SDS011;8598;50.508;10.436;2023-09-19T13:30:07;4.43;;;1.63;;
16963;SDS011;8598;50.508;10.436;2023-09-19T13:32:35;6.47;;;1.97;;
16963;SDS011;8598;50.508;10.436;2023-09-19T13:35:02;6.97;;;1.73;;
16963;SDS011;8598;50.508;10.436;2023-09-19T13:37:30;6.43;;;2.13;;
16963;SDS011;8598;50.508;10.436;2023-09-19T13:39:59;4.90;;;2.10;;
16963;SDS011;8598;50.508;10.436;2023-09-19T13:42:27;2.30;;;1.70;;
16963;SDS011;8598;50.508;10.436;2023-09-19T13:44:54;3.87;;;1.50;;
16963;SDS011;8598;50.508;10.436;2023-09-19T13:47:21;4.43;;;1.77;;
16963;SDS011;8598;50.508;10.436;2023-09-19T13:49:51;3.13;;;1.70;;
16963;SDS011;8598;50.508;10.436;2023-09-19T13:52:17;2.00;;;1.47;;
16963;SDS011;8598;50.508;10.436;2023-09-19T13:54:44;4.27;;;1.97;;
16963;SDS011;8598;50.508;10.436;2023-09-19T13:57:11;2.60;;;1.80;;
16963;SDS011;8598;50.508;10.436;2023-09-19T13:59:40;2.63;;;1.60;;
16963;SDS011;8598;50.508;10.436;2023-09-19T14:02:06;4.10;;;2.40;;
16963;SDS011;8598;50.508;10.436;2023-09-19T14:04:33;3.40;;;1.80;;
16963;SDS011;8598;50.508;10.436;2023-09-19T14:07:00;3.67;;;1.87;;
16963;SDS011;8598;50.508;10.436;2023-09-19T14:09:27;3.20;;;2.00;;
16963;SDS011;8598;50.508;10.436;2023-09-19T14:11:53;5.73;;;2.47;;
16963;SDS011;8598;50.508;10.436;2023-09-19T14:14:20;3.50;;;1.90;;
16963;SDS011;8598;50.508;10.436;2023-09-19T14:16:48;3.27;;;1.60;;
16963;SDS011;8598;50.508;10.436;2023-09-19T14:19:16;3.40;;;1.97;;
16963;SDS011;8598;50.508;10.436;2023-09-19T14:21:42;5.23;;;1.70;;
16963;SDS011;8598;50.508;10.436;2023-09-19T14:24:09;3.10;;;1.70;;
16963;SDS011;8598;50.508;10.436;2023-09-19T14:26:37;5.47;;;2.00;;
16963;SDS011;8598;50.508;10.436;2023-09-19T14:29:04;6.47;;;1.80;;
16963;SDS011;8598;50.508;10.436;2023-09-19T14:31:32;6.50;;;1.90;;
16963;SDS011;8598;50.508;10.436;2023-09-19T14:34:01;7.47;;;2.60;;
16963;SDS011;8598;50.508;10.436;2023-09-19T14:36:29;4.17;;;2.03;;
16963;SDS011;8598;50.508;10.436;2023-09-19T14:38:56;3.37;;;1.73;;
16963;SDS011;8598;50.508;10.436;2023-09-19T14:41:23;8.77;;;1.90;;
16963;SDS011;8598;50.508;10.436;2023-09-19T14:43:50;8.20;;;2.50;;
16963;SDS011;8598;50.508;10.436;2023-09-19T14:46:17;2.87;;;1.90;;
16963;SDS011;8598;50.508;10.436;2023-09-19T14:48:44;5.67;;;2.03;;
16963;SDS011;8598;50.508;10.436;2023-09-19T14:51:14;2.80;;;1.57;;
16963;SDS011;8598;50.508;10.436;2023-09-19T14:53:40;3.67;;;1.90;;
16963;SDS011;8598;50.508;10.436;2023-09-19T14:56:08;4.27;;;2.13;;
16963;SDS011;8598;50.508;10.436;2023-09-19T14:58:36;4.17;;;1.70;;
16963;SDS011;8598;50.508;10.436;2023-09-19T15:01:04;3.60;;;2.03;;
16963;SDS011;8598;50.508;10.436;2023-09-19T15:03:31;6.63;;;1.60;;
16963;SDS011;8598;50.508;10.436;2023-09-19T15:05:59;2.90;;;1.70;;
16963;SDS011;8598;50.508;10.436;2023-09-19T15:08:27;5.40;;;1.87;;
16963;SDS011;8598;50.508;10.436;2023-09-19T15:10:54;4.50;;;1.70;;
16963;SDS011;8598;50.508;10.436;2023-09-19T15:13:21;3.37;;;1.67;;
16963;SDS011;8598;50.508;10.436;2023-09-19T15:15:48;3.97;;;2.20;;
16963;SDS011;8598;50.508;10.436;2023-09-19T15:18:15;5.37;;;2.10;;
16963;SDS011;8598;50.508;10.436;2023-09-19T15:20:42;8.40;;;1.60;;
16963;SDS011;8598;50.508;10.436;2023-09-19T15:23:09;4.93;;;2.20;;
16963;SDS011;8598;50.508;10.436;2023-09-19T15:25:39;4.80;;;2.43;;
16963;SDS011;8598;50.508;10.436;2023-09-19T15:28:13;4.53;;;1.80;;
16963;SDS011;8598;50.508;10.436;2023-09-19T15:30:39;3.77;;;1.60;;